createdAt,value
2019-04-19T00:00:49.876Z,102991.81
2019-04-19T00:03:20.334Z,102997.14
2019-04-19T00:05:54.204Z,102991.41
2019-04-19T00:08:37.346Z,102990.96
2019-04-19T00:11:01.955Z,102988.33
2019-04-19T00:13:21.989Z,103002.92
2019-04-19T00:15:51.866Z,103002.05
2019-04-19T00:18:21.767Z,102999.84
2019-04-19T00:21:11.191Z,102994.11
2019-04-19T00:23:27.846Z,102991.91
2019-04-19T00:25:49.366Z,102994.59
2019-04-19T00:28:23.360Z,102999.88
2019-04-19T00:30:59.234Z,102997.68
2019-04-19T00:33:26.036Z,102995.03
2019-04-19T00:35:45.478Z,102989.30
2019-04-19T00:38:26.524Z,102997.23
2019-04-19T00:41:16.063Z,102994.56
2019-04-19T00:44:02.419Z,103000.77
2019-04-19T00:46:34.382Z,102989.23
2019-04-19T00:49:00.658Z,103000.31
2019-04-19T00:51:34.352Z,102998.53
2019-04-19T00:53:58.765Z,102997.69
2019-04-19T00:56:23.579Z,102996.35
2019-04-19T00:58:51.718Z,102997.28
2019-04-19T01:01:18.074Z,102995.95
2019-04-19T01:03:47.079Z,102994.69
2019-04-19T01:06:15.387Z,102993.38
2019-04-19T01:08:50.907Z,102995.61
2019-04-19T01:11:24.432Z,102995.63
2019-04-19T01:13:56.218Z,102995.63
2019-04-19T01:16:18.669Z,103001.42
2019-04-19T01:18:49.352Z,103001.44
2019-04-19T01:21:07.097Z,103000.57
2019-04-19T01:23:44.280Z,103001.01
2019-04-19T01:26:10.114Z,103006.80
2019-04-19T01:28:35.381Z,103014.72
2019-04-19T01:31:10.154Z,103006.79
2019-04-19T01:33:38.979Z,103007.25
2019-04-19T01:36:04.230Z,103005.49
2019-04-19T01:38:38.668Z,103009.48
2019-04-19T01:41:18.319Z,103014.79
2019-04-19T01:43:54.929Z,103016.58
2019-04-19T01:46:47.426Z,103013.04
2019-04-19T01:49:09.477Z,103009.08
2019-04-19T01:51:51.984Z,103008.64
2019-04-19T01:54:34.530Z,103013.05
2019-04-19T01:56:53.566Z,103009.54
2019-04-19T01:59:18.127Z,103006.91
2019-04-19T02:01:46.401Z,103008.20
2019-04-19T02:04:21.644Z,103008.22
2019-04-19T02:06:47.661Z,103014.39
2019-04-19T02:09:26.801Z,103007.36
2019-04-19T02:11:56.607Z,103013.09
2019-04-19T02:14:22.742Z,103009.11
2019-04-19T02:16:52.697Z,103012.20
2019-04-19T02:19:21.272Z,103010.02
2019-04-19T02:21:48.727Z,103017.53
2019-04-19T02:24:14.811Z,103010.89
2019-04-19T02:26:52.178Z,103012.20
2019-04-19T02:29:16.826Z,103022.80
2019-04-19T02:32:07.286Z,103020.61
2019-04-19T02:34:47.186Z,103023.27
2019-04-19T02:37:08.004Z,103028.09
2019-04-19T02:39:51.011Z,103028.56
2019-04-19T02:42:16.435Z,103028.53
2019-04-19T02:44:38.331Z,102985.78
2019-04-19T02:49:46.881Z,103036.48
2019-04-19T02:52:09.943Z,103034.73
2019-04-19T02:57:39.636Z,103039.58
2019-04-19T03:00:30.813Z,103047.06
2019-04-19T03:03:06.046Z,103042.66
2019-04-19T03:05:34.609Z,103045.72
2019-04-19T03:07:42.571Z,103045.28
2019-04-19T03:10:17.448Z,103049.27
2019-04-19T03:13:00.146Z,103051.89
2019-04-19T03:15:24.809Z,103051.42
2019-04-19T03:17:57.520Z,103050.56
2019-04-19T03:20:21.895Z,103051.44
2019-04-19T03:22:54.771Z,103054.06
2019-04-19T03:25:18.288Z,103048.77
2019-04-19T03:27:49.717Z,103050.09
2019-04-19T03:30:23.162Z,103050.98
2019-04-19T03:33:11.059Z,103049.20
2019-04-19T03:35:14.984Z,103056.25
2019-04-19T03:37:57.408Z,103056.22
2019-04-19T03:40:23.338Z,103058.88
2019-04-19T03:43:10.442Z,103051.81
2019-04-19T03:45:43.671Z,103055.77
2019-04-19T03:48:12.003Z,103059.69
2019-04-19T03:50:37.735Z,103065.81
2019-04-19T03:53:09.171Z,103067.54
2019-04-19T03:55:39.108Z,103078.56
2019-04-19T03:57:54.990Z,103078.56
2019-04-19T04:00:17.401Z,103079.44
2019-04-19T04:02:48.056Z,103081.19
2019-04-19T04:05:17.448Z,103084.72
2019-04-19T04:07:55.283Z,103089.11
2019-04-19T04:10:37.705Z,103085.53
2019-04-19T04:13:28.706Z,103087.69
2019-04-19T04:16:14.082Z,103092.11
2019-04-19T04:18:27.935Z,103095.57
2019-04-19T04:20:59.031Z,103094.21
2019-04-19T04:23:32.284Z,103100.84
2019-04-19T04:26:02.899Z,103103.91
2019-04-19T04:28:41.593Z,103106.55
2019-04-19T04:31:05.832Z,103107.02
2019-04-19T04:33:32.198Z,103109.66
2019-04-19T04:36:13.097Z,103106.58
2019-04-19T04:38:29.849Z,103107.91
2019-04-19T04:40:50.717Z,103105.26
2019-04-19T04:43:31.387Z,103105.25
2019-04-19T04:46:32.508Z,103109.25
2019-04-19T04:48:49.760Z,103111.46
2019-04-19T04:51:23.431Z,103110.19
2019-04-19T04:53:47.081Z,103116.81
2019-04-19T04:56:19.444Z,103115.50
2019-04-19T04:58:49.584Z,103121.23
2019-04-19T05:01:32.421Z,103116.42
2019-04-19T05:04:02.026Z,103128.31
2019-04-19T05:06:32.436Z,103129.23
2019-04-19T05:08:58.497Z,103125.31
2019-04-19T05:11:30.457Z,103128.86
2019-04-19T05:14:03.016Z,102924.47
2019-04-19T05:16:53.594Z,103137.30
2019-04-19T05:18:59.451Z,103136.02
2019-04-19T05:21:27.189Z,103141.77
2019-04-19T05:24:04.974Z,103139.59
2019-04-19T05:26:52.489Z,103135.64
2019-04-19T05:28:57.221Z,103136.55
2019-04-19T05:31:11.221Z,103138.32
2019-04-19T05:33:51.461Z,103143.65
2019-04-19T05:36:27.603Z,103131.28
2019-04-19T05:39:12.452Z,103133.52
2019-04-19T05:41:56.443Z,103142.34
2019-04-19T05:45:11.919Z,103145.00
2019-04-19T05:47:18.372Z,103148.55
2019-04-19T05:49:51.522Z,103148.98
2019-04-19T05:52:27.282Z,103164.88
2019-04-19T05:54:32.099Z,103151.64
2019-04-19T05:57:17.721Z,103143.69
2019-04-19T05:59:42.598Z,103155.59
2019-04-19T06:02:13.554Z,103156.89
2019-04-19T06:04:58.209Z,103156.89
2019-04-19T06:07:18.864Z,103151.54
2019-04-19T06:09:26.937Z,103159.02
2019-04-19T06:11:56.948Z,103152.33
2019-04-19T06:14:50.780Z,103154.91
2019-04-19T06:17:30.501Z,103160.15
2019-04-19T06:19:56.817Z,103167.16
2019-04-19T06:22:37.168Z,103157.33
2019-04-19T06:25:00.704Z,103160.31
2019-04-19T06:27:43.877Z,103166.37
2019-04-19T06:30:11.797Z,103162.30
2019-04-19T06:32:39.025Z,103166.20
2019-04-19T06:35:00.273Z,103166.55
2019-04-19T06:37:18.037Z,103162.89
2019-04-19T06:39:42.120Z,103175.17
2019-04-19T06:42:13.671Z,103171.49
2019-04-19T06:45:02.914Z,103170.09
2019-04-19T06:47:19.683Z,103177.98
2019-04-19T06:49:40.652Z,103170.92
2019-04-19T06:52:14.984Z,103178.41
2019-04-19T06:54:41.582Z,103173.05
2019-04-19T06:57:16.498Z,103174.25
2019-04-19T06:59:52.098Z,103180.82
2019-04-19T07:02:05.642Z,103175.33
2019-04-19T07:04:46.127Z,103181.28
2019-04-19T07:07:21.870Z,103177.25
2019-04-19T07:10:01.078Z,103177.26
2019-04-19T07:12:23.993Z,103178.18
2019-04-19T07:14:34.945Z,103174.30
2019-04-19T07:17:23.229Z,103174.91
2019-04-19T07:19:52.887Z,103181.31
2019-04-19T07:22:14.399Z,103174.09
2019-04-19T07:24:51.221Z,103179.83
2019-04-19T07:27:15.400Z,103184.24
2019-04-19T07:29:27.651Z,103193.36
2019-04-19T07:31:57.717Z,103195.48
2019-04-19T07:34:44.762Z,103187.38
2019-04-19T07:37:14.514Z,103189.63
2019-04-19T07:39:50.953Z,103193.78
2019-04-19T07:42:16.926Z,103195.20
2019-04-19T07:44:48.011Z,103198.06
2019-04-19T07:47:31.839Z,103198.62
2019-04-19T07:49:57.299Z,103198.58
2019-04-19T07:52:21.445Z,103202.42
2019-04-19T07:54:47.876Z,103200.04
2019-04-19T07:57:52.001Z,103204.16
2019-04-19T08:00:13.940Z,103202.28
2019-04-19T08:05:11.406Z,103198.80
2019-04-19T08:07:56.853Z,103195.19
2019-04-19T08:10:24.713Z,103198.22
2019-04-19T08:16:01.357Z,103200.31
2019-04-19T08:27:30.971Z,103200.28
2019-04-19T08:29:47.346Z,103196.84
2019-04-19T08:32:06.917Z,103202.84
2019-04-19T08:34:35.052Z,103201.50
2019-04-19T08:37:10.110Z,103198.04
2019-04-19T08:39:51.032Z,103201.81
2019-04-19T08:42:22.421Z,103191.92
2019-04-19T08:44:43.085Z,103194.30
2019-04-19T08:47:34.597Z,103193.53
2019-04-19T08:50:13.749Z,103190.80
2019-04-19T08:52:41.472Z,103193.52
2019-04-19T08:55:33.809Z,103191.27
2019-04-19T08:57:39.568Z,103193.63
2019-04-19T09:00:52.184Z,103187.71
2019-04-19T09:02:48.781Z,103182.06
2019-04-19T09:05:22.390Z,103181.78
2019-04-19T09:08:03.230Z,103184.03
2019-04-19T09:10:31.883Z,103187.56
2019-04-19T09:13:14.204Z,103184.58
2019-04-19T09:15:21.569Z,103179.09
2019-04-19T09:20:31.732Z,103187.94
2019-04-19T09:23:06.539Z,103179.00
2019-04-19T09:25:44.012Z,103177.39
2019-04-19T09:28:30.842Z,103181.95
2019-04-19T09:30:52.377Z,103184.20
2019-04-19T09:33:09.963Z,103174.95
2019-04-19T09:35:39.912Z,103170.00
2019-04-19T09:38:13.912Z,103172.27
2019-04-19T09:40:39.249Z,103164.61
2019-04-19T09:43:18.324Z,103167.69
2019-04-19T09:45:29.777Z,103166.94
2019-04-19T09:47:59.088Z,103158.09
2019-04-19T09:50:43.311Z,103167.59
2019-04-19T09:53:29.151Z,103162.52
2019-04-19T09:55:49.705Z,103157.83
2019-04-19T09:58:16.922Z,103160.17
2019-04-19T10:00:28.936Z,103162.16
2019-04-19T10:03:00.542Z,103154.41
2019-04-19T10:05:24.328Z,103160.11
2019-04-19T10:07:55.090Z,103154.83
2019-04-19T10:10:22.919Z,103152.20
2019-04-19T10:12:52.137Z,103145.11
2019-04-19T10:15:46.650Z,103145.50
2019-04-19T10:18:16.323Z,103143.55
2019-04-19T10:21:04.911Z,103142.58
2019-04-19T10:23:33.703Z,103152.11
2019-04-19T10:26:07.118Z,103144.34
2019-04-19T10:28:32.274Z,103145.16
2019-04-19T10:31:07.804Z,103135.55
2019-04-19T10:33:46.578Z,103140.99
2019-04-19T10:36:06.658Z,103140.48
2019-04-19T10:38:35.923Z,103140.88
2019-04-19T10:41:05.158Z,103143.50
2019-04-19T10:43:34.974Z,103135.39
2019-04-19T10:46:04.822Z,103130.29
2019-04-19T10:48:33.039Z,103123.70
2019-04-19T10:51:12.352Z,103117.50
2019-04-19T10:53:42.091Z,103118.16
2019-04-19T10:56:18.686Z,103116.28
2019-04-19T10:58:48.986Z,103117.85
2019-04-19T11:01:17.174Z,103112.99
2019-04-19T11:03:46.961Z,103115.69
2019-04-19T11:06:16.810Z,103110.67
2019-04-19T11:08:45.226Z,103102.25
2019-04-19T11:11:14.436Z,103102.47
2019-04-19T11:13:43.798Z,103104.64
2019-04-19T11:16:13.020Z,103103.54
2019-04-19T11:18:43.511Z,103102.14
2019-04-19T11:21:11.685Z,103094.02
2019-04-19T11:23:41.927Z,103092.02
2019-04-19T11:26:10.383Z,103085.89
2019-04-19T11:28:40.927Z,103088.42
2019-04-19T11:31:33.983Z,103093.53
2019-04-19T11:34:03.019Z,103090.19
2019-04-19T11:36:33.280Z,103086.47
2019-04-19T11:39:01.549Z,103081.60
2019-04-19T11:41:31.277Z,103080.62
2019-04-19T11:44:06.202Z,103083.16
2019-04-19T11:46:29.865Z,103092.65
2019-04-19T11:48:59.708Z,103084.09
2019-04-19T11:51:27.909Z,103084.84
2019-04-19T11:53:57.113Z,103080.47
2019-04-19T11:56:50.585Z,103083.66
2019-04-19T11:59:40.647Z,103081.91
2019-04-19T12:02:06.074Z,103083.63
2019-04-19T12:04:34.906Z,103084.63
2019-04-19T12:07:04.132Z,103086.92
2019-04-19T12:09:34.448Z,103087.48
2019-04-19T12:12:03.204Z,103090.48
2019-04-19T12:14:32.739Z,103074.78
2019-04-19T12:17:02.746Z,103073.35
2019-04-19T12:19:40.177Z,103084.02
2019-04-19T12:22:00.979Z,103075.70
2019-04-19T12:24:29.018Z,103070.91
2019-04-19T12:26:58.232Z,103066.89
2019-04-19T12:29:35.315Z,103058.99
2019-04-19T12:31:56.703Z,103073.86
2019-04-19T12:34:25.932Z,103068.79
2019-04-19T12:36:55.193Z,103069.31
2019-04-19T12:39:25.150Z,103059.59
2019-04-19T12:41:53.741Z,103062.42
2019-04-19T12:44:23.023Z,103065.78
2019-04-19T12:46:52.956Z,103066.59
2019-04-19T12:49:22.691Z,103068.69
2019-04-19T12:51:51.983Z,103060.05
2019-04-19T12:54:20.361Z,103063.01
2019-04-19T12:56:49.816Z,103063.93
2019-04-19T12:59:21.282Z,103058.38
2019-04-19T13:01:59.794Z,103058.02
2019-04-19T13:04:50.612Z,103063.34
2019-04-19T13:07:18.650Z,103049.57
2019-04-19T13:09:48.884Z,103045.76
2019-04-19T13:12:17.075Z,103044.39
2019-04-19T13:14:46.358Z,103051.84
2019-04-19T13:17:16.044Z,103037.38
2019-04-19T13:19:45.129Z,103036.63
2019-04-19T13:22:14.523Z,103040.08
2019-04-19T13:24:44.678Z,103035.11
2019-04-19T13:27:12.780Z,103037.23
2019-04-19T13:29:42.054Z,103034.67
2019-04-19T13:32:11.600Z,103030.84
2019-04-19T13:34:41.165Z,103035.27
2019-04-19T13:37:27.817Z,103023.66
2019-04-19T13:40:08.164Z,103022.33
2019-04-19T13:42:37.335Z,103026.09
2019-04-19T13:45:13.931Z,103020.09
2019-04-19T13:47:36.498Z,103014.11
2019-04-19T13:50:19.302Z,103028.02
2019-04-19T13:52:34.758Z,103015.86
2019-04-19T13:55:04.278Z,103014.41
2019-04-19T13:57:33.543Z,103012.18
2019-04-19T14:00:06.447Z,103008.38
2019-04-19T14:02:32.102Z,103014.27
2019-04-19T14:05:01.915Z,103009.31
2019-04-19T14:07:30.839Z,103008.86
2019-04-19T14:10:01.080Z,103005.08
2019-04-19T14:12:29.149Z,103010.52
2019-04-19T14:14:58.942Z,103008.22
2019-04-19T14:17:27.505Z,103002.13
2019-04-19T14:19:57.085Z,102998.23
2019-04-19T14:22:25.852Z,102993.95
2019-04-19T14:24:55.923Z,102988.47
2019-04-19T14:27:24.348Z,102994.75
2019-04-19T14:29:53.690Z,102992.42
2019-04-19T14:32:23.283Z,102994.59
2019-04-19T14:34:52.142Z,102998.21
2019-04-19T14:37:22.445Z,102990.77
2019-04-19T14:39:50.544Z,102992.95
2019-04-19T14:42:19.851Z,102987.97
2019-04-19T14:44:50.057Z,102991.72
2019-04-19T14:47:19.005Z,102981.05
2019-04-19T14:49:49.031Z,102986.27
2019-04-19T14:52:18.154Z,102976.44
2019-04-19T14:54:46.360Z,102974.50
2019-04-19T14:57:15.424Z,102979.47
2019-04-19T14:59:45.086Z,102980.78
2019-04-19T15:02:16.740Z,102975.54
2019-04-19T15:05:07.698Z,102980.09
2019-04-19T15:07:36.674Z,102971.95
2019-04-19T15:10:06.039Z,102966.70
2019-04-19T15:12:36.464Z,102967.44
2019-04-19T15:15:06.178Z,102972.07
2019-04-19T15:17:35.295Z,102965.66
2019-04-19T15:20:03.718Z,102965.04
2019-04-19T15:22:32.938Z,102968.40
2019-04-19T15:25:02.531Z,102971.30
2019-04-19T15:27:32.767Z,102974.38
2019-04-19T15:30:01.096Z,102962.48
2019-04-19T15:32:30.595Z,102957.90
2019-04-19T15:34:59.257Z,102962.00
2019-04-19T15:37:29.645Z,102959.80
2019-04-19T15:39:58.070Z,102954.84
2019-04-19T15:42:28.878Z,102955.78
2019-04-19T15:44:57.026Z,102960.16
2019-04-19T15:47:26.544Z,102958.10
2019-04-19T15:49:55.849Z,102951.30
2019-04-19T15:52:26.138Z,102951.58
2019-04-19T15:54:54.286Z,102956.27
2019-04-19T15:57:23.875Z,102953.23
2019-04-19T15:59:53.784Z,102958.98
2019-04-19T16:02:33.831Z,102954.77
2019-04-19T16:05:24.176Z,102951.72
2019-04-19T16:08:12.136Z,102949.80
2019-04-19T16:10:54.886Z,102947.38
2019-04-19T16:13:23.652Z,102947.93
2019-04-19T16:15:52.173Z,102949.68
2019-04-19T16:18:22.228Z,102947.14
2019-04-19T16:20:51.244Z,102943.23
2019-04-19T16:23:20.597Z,102953.56
2019-04-19T16:25:49.786Z,102946.43
2019-04-19T16:28:19.297Z,102942.36
2019-04-19T16:30:48.598Z,102954.23
2019-04-19T16:33:17.832Z,102955.02
2019-04-19T16:35:46.618Z,102949.92
2019-04-19T16:38:16.380Z,102951.86
2019-04-19T16:40:46.237Z,102957.20
2019-04-19T16:43:15.418Z,102946.55
2019-04-19T16:45:44.096Z,102945.14
2019-04-19T16:48:13.024Z,102946.73
2019-04-19T16:50:42.905Z,102943.13
2019-04-19T16:53:11.364Z,102945.88
2019-04-19T16:55:41.515Z,102949.33
2019-04-19T16:58:10.537Z,102945.80
2019-04-19T17:00:41.091Z,102943.42
2019-04-19T17:03:11.532Z,102943.11
2019-04-19T17:05:39.708Z,102946.92
2019-04-19T17:08:09.383Z,102936.00
2019-04-19T17:10:38.708Z,102938.02
2019-04-19T17:13:08.621Z,102943.30
2019-04-19T17:16:05.156Z,102945.88
2019-04-19T17:18:52.717Z,102952.40
2019-04-19T17:21:22.174Z,102949.39
2019-04-19T17:23:51.443Z,102953.43
2019-04-19T17:26:20.714Z,102953.84
2019-04-19T17:28:50.814Z,102955.80
2019-04-19T17:31:20.276Z,102953.56
2019-04-19T17:33:48.524Z,102956.98
2019-04-19T17:36:17.910Z,102955.86
2019-04-19T17:38:50.652Z,102957.34
2019-04-19T17:41:16.614Z,102961.59
2019-04-19T17:43:45.743Z,102966.75
2019-04-19T17:46:14.796Z,102960.73
2019-04-19T17:48:44.430Z,102957.42
2019-04-19T17:51:13.807Z,102959.11
2019-04-19T17:53:46.987Z,102967.59
2019-04-19T17:56:13.091Z,102972.05
2019-04-19T17:58:42.333Z,102964.95
2019-04-19T18:01:10.433Z,102968.91
2019-04-19T18:03:40.696Z,102973.16
2019-04-19T18:06:09.886Z,102975.11
2019-04-19T18:08:39.276Z,102976.49
2019-04-19T18:11:07.521Z,102976.48
2019-04-19T18:13:37.271Z,102977.84
2019-04-19T18:16:06.806Z,102982.19
2019-04-19T18:18:41.262Z,102974.90
2019-04-19T18:21:05.580Z,102989.02
2019-04-19T18:23:43.050Z,102987.49
2019-04-19T18:26:03.348Z,102989.95
2019-04-19T18:28:38.291Z,102990.55
2019-04-19T18:31:02.459Z,102996.02
2019-04-19T18:33:33.667Z,102998.89
2019-04-19T18:36:08.246Z,103000.88
2019-04-19T18:38:32.845Z,102996.96
2019-04-19T18:41:01.316Z,102995.68
2019-04-19T18:43:38.655Z,103001.14
2019-04-19T18:46:00.378Z,103011.81
2019-04-19T18:48:29.712Z,103012.16
2019-04-19T18:51:00.120Z,103006.29
2019-04-19T18:53:37.816Z,103016.85
2019-04-19T18:55:58.838Z,103019.30
2019-04-19T18:58:30.898Z,103018.23
2019-04-19T19:00:57.108Z,103017.69
2019-04-19T19:03:35.157Z,103022.05
2019-04-19T19:06:00.557Z,103017.05
2019-04-19T19:08:29.370Z,103020.50
2019-04-19T19:10:55.526Z,102736.64
2019-04-19T19:13:28.830Z,103024.72
2019-04-19T19:15:55.895Z,103030.86
2019-04-19T19:18:27.944Z,103029.43
2019-04-19T19:20:56.550Z,103033.69
2019-04-19T19:23:42.197Z,103039.27
2019-04-19T19:26:03.172Z,103039.10
2019-04-19T19:28:21.609Z,103048.23
2019-04-19T19:30:49.034Z,103045.69
2019-04-19T19:33:20.517Z,103048.52
2019-04-19T19:35:54.911Z,103043.77
2019-04-19T19:38:21.944Z,103051.52
2019-04-19T19:40:59.842Z,103049.99
2019-04-19T19:43:33.947Z,103046.59
2019-04-19T19:45:55.737Z,103049.05
2019-04-19T19:48:36.029Z,103046.52
2019-04-19T19:51:04.906Z,103056.91
2019-04-19T19:56:11.374Z,103060.27
2019-04-19T19:58:22.187Z,103061.30
2019-04-19T20:00:55.546Z,103065.02
2019-04-19T20:03:18.415Z,103062.94
2019-04-19T20:05:40.841Z,103065.69
2019-04-19T20:08:08.283Z,103063.95
2019-04-19T20:10:43.304Z,103064.84
2019-04-19T20:13:11.003Z,103069.78
2019-04-19T20:15:39.590Z,103075.13
2019-04-19T20:18:06.494Z,103072.05
2019-04-19T20:20:38.929Z,103076.14
2019-04-19T20:23:04.425Z,103075.32
2019-04-19T20:25:41.911Z,103074.53
2019-04-19T20:28:02.972Z,103077.31
2019-04-19T20:30:39.146Z,103079.64
2019-04-19T20:33:02.677Z,103077.56
2019-04-19T20:35:30.034Z,103075.45
2019-04-19T20:38:03.416Z,103084.48
2019-04-19T20:40:30.615Z,103075.29
2019-04-19T20:43:23.548Z,103079.86
2019-04-19T20:45:36.865Z,103079.50
2019-04-19T20:48:07.071Z,103079.19
2019-04-19T20:50:39.856Z,103083.73
2019-04-19T20:53:08.632Z,103083.38
2019-04-19T20:55:40.160Z,103078.67
2019-04-19T20:58:09.340Z,103080.59
2019-04-19T21:00:50.438Z,103078.48
2019-04-19T21:03:26.596Z,103078.56
2019-04-19T21:05:49.724Z,103088.02
2019-04-19T21:08:20.883Z,103090.34
2019-04-19T21:10:54.552Z,103091.82
2019-04-19T21:13:18.852Z,103091.98
2019-04-19T21:15:45.092Z,103100.11
2019-04-19T21:18:20.012Z,103099.38
2019-04-19T21:20:44.612Z,103099.05
2019-04-19T21:23:18.447Z,103099.59
2019-04-19T21:25:49.432Z,103102.33
2019-04-19T21:28:11.053Z,103114.87
2019-04-19T21:30:47.045Z,103110.49
2019-04-19T21:33:13.389Z,103113.70
2019-04-19T21:35:47.602Z,103111.16
2019-04-19T21:38:11.786Z,103117.48
2019-04-19T21:40:40.137Z,103111.41
2019-04-19T21:43:08.265Z,103117.75
2019-04-19T21:45:41.764Z,103117.47
2019-04-19T21:48:05.471Z,103121.11
2019-04-19T21:50:39.457Z,103114.53
2019-04-19T21:53:08.829Z,103119.95
2019-04-19T21:55:40.177Z,103120.90
2019-04-19T21:58:08.923Z,103123.63
2019-04-19T22:00:58.768Z,103124.19
2019-04-19T22:03:23.192Z,103120.25
2019-04-19T22:05:49.351Z,103118.98
2019-04-19T22:08:23.428Z,103127.96
2019-04-19T22:10:50.047Z,103129.40
2019-04-19T22:13:16.742Z,103132.58
2019-04-19T22:15:51.103Z,103136.23
2019-04-19T22:18:15.285Z,103135.83
2019-04-19T22:20:51.519Z,103137.67
2019-04-19T22:23:14.817Z,103143.04
2019-04-19T22:25:51.319Z,103140.89
2019-04-19T22:28:12.284Z,103139.20
2019-04-19T22:30:45.478Z,103140.99
2019-04-19T22:33:12.552Z,103141.03
2019-04-19T22:35:41.620Z,103137.51
2019-04-19T22:38:14.165Z,103135.76
2019-04-19T22:40:38.965Z,103144.57
2019-04-19T22:43:11.549Z,103143.70
2019-04-19T22:45:38.903Z,103150.36
2019-04-19T22:48:14.039Z,103144.20
2019-04-19T22:50:40.050Z,103142.00
2019-04-19T22:53:05.467Z,103144.26
2019-04-19T22:55:45.196Z,103140.77
2019-04-19T22:58:04.660Z,103149.20
2019-04-19T23:00:38.555Z,103146.14
2019-04-19T23:03:25.097Z,103142.61
2019-04-19T23:05:47.020Z,103146.18
2019-04-19T23:08:19.315Z,103151.55
2019-04-19T23:10:52.461Z,103149.39
2019-04-19T23:13:15.474Z,103153.42
2019-04-19T23:15:43.813Z,103153.46
2019-04-19T23:18:18.608Z,103160.16
2019-04-19T23:20:43.271Z,103152.22
2019-04-19T23:23:20.349Z,103146.06
2019-04-19T23:25:44.148Z,103147.02
2019-04-19T23:28:19.918Z,103147.52
2019-04-19T23:30:39.110Z,103156.45
2019-04-19T23:33:13.330Z,103155.61
2019-04-19T23:35:40.026Z,103160.51
2019-04-19T23:38:07.413Z,103156.17
2019-04-19T23:40:39.057Z,103155.30
2019-04-19T23:43:06.111Z,103148.69
2019-04-19T23:45:39.061Z,103156.73
2019-04-19T23:48:04.591Z,103158.09
2019-04-19T23:50:37.933Z,103154.59
2019-04-19T23:53:04.094Z,103151.09
2019-04-19T23:55:32.758Z,103149.34
2019-04-19T23:58:01.431Z,103154.72
